LLHALLET

Guest
Details From LLHA - Haifa
To LLET - EILAT
Flight Number -
Tags generated
Created
Modified
Stats Distance 196 nm / 363 km
Max Altitude 24,700 ft / 7,529 m
Waypoints 4
Social Downloads 1
Likes 0
Share VATSIM

Download

Looking for another format? Having issues loading an existing format? Contact us
Advertisement - Login to hide

Notes

Basic altitude profile: - Ascent Rate: 1300ft/min - Ascent Speed: 280kts - Cruise Altitude: 22000ft - Cruise Speed: 280kts - Descent Rate: 1500ft/min - Descent Speed: 220kts Options: - Use NATs: yes - Use PACOTS: yes - Use low airways: no - Use high airways: yes

Route

LLHA GILAD J13 BOGER LLET

ID Type Via Altitude Latitude Longitude Leg Dist Tot Dist Heading (true) Name
O LLHA APT - 0 ft / 0 m 32.81113˚ 35.04414˚ - 0 nm - Haifa
GILAD FIX - 24,700 ft / 7,529 m 31.48144˚ 34.85273˚ 80 nm 80 nm 187° / 187° -
BOGER FIX J13 (AWY-HI) 17,600 ft / 5,364 m 30.93254˚ 34.93246˚ 33 nm 113 nm 173° / 173° -
O LLET APT - 0 ft / 0 m 29.56127˚ 34.96011˚ 82 nm 196 nm 179° / 179° EILAT

Altitude Profile

Advertisement - Login to hide

Weather


0- 5 10 15 20 25 30 35+ Temperature / ° C

Clouds and Precipitation
Forecast for 2018-05-24 00:00 UTC. Updated 2 hours ago

Ground ~20,000 ft ~40,000 ft Winds

LLHA

Details ICAO LLHA (HFA)
Name Haifa
Region Israel
Timezone Asia/Jerusalem (UTC+3.0)
Stats Elevation 28 ft / 9 m (AMSL)
Location 32.811125° 35.044139°
Runways 1
Magnetic Variation 4.818° E

METAR

Not found

TAF

TAF LLHA 232311Z 2400/2424 19005KT 9999 SCT020 BECMG 2407/2409 26010KT CAVOK BECMG 2415/2417 VRB04KT TX27/2411Z TN22/2403Z

Decode

Departure Runways

ID Width Length Bearing (true) Bearing (mag) Surface Threshold Offset Overrun Length
16 98 ft / 30 m 4,161 ft / 1,268 m 158.88° 154.06° Asphalt 164 ft / 50 m 0 ft / 0 m
34 98 ft / 30 m 4,161 ft / 1,268 m 338.88° 334.06° Asphalt 380 ft / 116 m 90 ft / 27 m

LLET

Details ICAO LLET (ETH)
Name EILAT
Region Israel
Timezone Asia/Jerusalem (UTC+3.0)
Stats Elevation 42 ft / 13 m (AMSL)
Location 29.561268° 34.960111°
Runways 1
Magnetic Variation 4.465° E

METAR

Not found

TAF

TAF LLET 232305Z 2400/2424 35010KT CAVOK BECMG 2408/2410 02015KT BECMG 2418/2420 35010KT TX38/2411Z TN26/2403Z

Decode

Destination Runways

ID Width Length Bearing (true) Bearing (mag) Surface Threshold Offset Overrun Length
03 89 ft / 27 m 6,249 ft / 1,905 m 27.93° 23.47° Asphalt 945 ft / 288 m 125 ft / 38 m
21 89 ft / 27 m 6,249 ft / 1,905 m 207.93° 203.47° Asphalt 0 ft / 0 m 0 ft / 0 m

Popular Alternatives